sensor_id;sensor_type;location;lat;lon;timestamp;temperature;humidity
19415;DHT22;9843;48.882;12.592;2022-09-09T00:01:43;14.10;99.90
19415;DHT22;9843;48.882;12.592;2022-09-09T00:04:18;14.10;99.90
19415;DHT22;9843;48.882;12.592;2022-09-09T00:06:59;14.10;99.90
19415;DHT22;9843;48.882;12.592;2022-09-09T00:09:29;14.10;99.90
19415;DHT22;9843;48.882;12.592;2022-09-09T00:12:02;14.10;99.90
19415;DHT22;9843;48.882;12.592;2022-09-09T00:14:37;14.10;99.90
19415;DHT22;9843;48.882;12.592;2022-09-09T00:17:09;14.00;99.90
19415;DHT22;9843;48.882;12.592;2022-09-09T00:19:46;14.00;99.90
19415;DHT22;9843;48.882;12.592;2022-09-09T00:22:18;13.90;99.90
19415;DHT22;9843;48.882;12.592;2022-09-09T00:24:46;13.90;99.90
19415;DHT22;9843;48.882;12.592;2022-09-09T00:27:19;13.90;99.90
19415;DHT22;9843;48.882;12.592;2022-09-09T00:29:53;13.90;99.90
19415;DHT22;9843;48.882;12.592;2022-09-09T00:32:21;13.80;99.90
19415;DHT22;9843;48.882;12.592;2022-09-09T00:34:53;13.80;99.90
19415;DHT22;9843;48.882;12.592;2022-09-09T00:37:22;13.80;99.90
19415;DHT22;9843;48.882;12.592;2022-09-09T00:39:53;13.80;99.90
19415;DHT22;9843;48.882;12.592;2022-09-09T00:42:25;13.80;99.90
19415;DHT22;9843;48.882;12.592;2022-09-09T00:44:58;13.80;99.90
19415;DHT22;9843;48.882;12.592;2022-09-09T00:47:39;13.80;99.90
19415;DHT22;9843;48.882;12.592;2022-09-09T00:50:19;13.80;99.90
19415;DHT22;9843;48.882;12.592;2022-09-09T00:52:59;13.80;99.90
19415;DHT22;9843;48.882;12.592;2022-09-09T00:55:39;13.70;99.90
19415;DHT22;9843;48.882;12.592;2022-09-09T00:58:09;13.70;99.90
19415;DHT22;9843;48.882;12.592;2022-09-09T01:00:42;13.70;99.90
19415;DHT22;9843;48.882;12.592;2022-09-09T01:03:32;13.60;99.90
19415;DHT22;9843;48.882;12.592;2022-09-09T01:06:11;13.60;99.90
19415;DHT22;9843;48.882;12.592;2022-09-09T01:11:52;13.50;99.90
19415;DHT22;9843;48.882;12.592;2022-09-09T01:14:32;13.40;99.90
19415;DHT22;9843;48.882;12.592;2022-09-09T01:17:07;13.40;99.90
19415;DHT22;9843;48.882;12.592;2022-09-09T01:19:47;13.30;99.90
19415;DHT22;9843;48.882;12.592;2022-09-09T01:22:25;13.30;99.90
19415;DHT22;9843;48.882;12.592;2022-09-09T01:25:11;13.30;99.90
19415;DHT22;9843;48.882;12.592;2022-09-09T01:27:43;13.20;99.90
19415;DHT22;9843;48.882;12.592;2022-09-09T01:30:11;13.20;99.90
19415;DHT22;9843;48.882;12.592;2022-09-09T01:32:42;13.20;99.90
19415;DHT22;9843;48.882;12.592;2022-09-09T01:35:13;13.10;99.90
19415;DHT22;9843;48.882;12.592;2022-09-09T01:37:41;13.10;99.90
19415;DHT22;9843;48.882;12.592;2022-09-09T01:40:08;13.10;99.90
19415;DHT22;9843;48.882;12.592;2022-09-09T01:42:35;13.10;99.90
19415;DHT22;9843;48.882;12.592;2022-09-09T01:45:04;13.10;99.90
19415;DHT22;9843;48.882;12.592;2022-09-09T01:47:32;13.00;99.90
19415;DHT22;9843;48.882;12.592;2022-09-09T01:49:59;13.00;99.90
19415;DHT22;9843;48.882;12.592;2022-09-09T01:52:27;13.00;99.90
19415;DHT22;9843;48.882;12.592;2022-09-09T01:54:54;13.00;99.90
19415;DHT22;9843;48.882;12.592;2022-09-09T01:57:24;12.90;99.90
19415;DHT22;9843;48.882;12.592;2022-09-09T02:00:01;12.90;99.90
19415;DHT22;9843;48.882;12.592;2022-09-09T02:02:35;12.90;99.90
19415;DHT22;9843;48.882;12.592;2022-09-09T02:05:12;12.80;99.90
19415;DHT22;9843;48.882;12.592;2022-09-09T02:07:42;12.90;99.90
19415;DHT22;9843;48.882;12.592;2022-09-09T02:10:13;12.80;99.90
19415;DHT22;9843;48.882;12.592;2022-09-09T02:12:44;12.80;99.90
19415;DHT22;9843;48.882;12.592;2022-09-09T02:15:18;12.80;99.90
19415;DHT22;9843;48.882;12.592;2022-09-09T02:17:49;12.80;99.90
19415;DHT22;9843;48.882;12.592;2022-09-09T02:20:19;12.80;99.90
19415;DHT22;9843;48.882;12.592;2022-09-09T02:22:49;12.70;99.90
19415;DHT22;9843;48.882;12.592;2022-09-09T02:25:19;12.70;99.90
19415;DHT22;9843;48.882;12.592;2022-09-09T02:27:48;12.70;99.90
19415;DHT22;9843;48.882;12.592;2022-09-09T02:30:16;12.70;99.90
19415;DHT22;9843;48.882;12.592;2022-09-09T02:32:45;12.70;99.90
19415;DHT22;9843;48.882;12.592;2022-09-09T02:35:16;12.70;99.90
19415;DHT22;9843;48.882;12.592;2022-09-09T02:37:44;12.80;99.90
19415;DHT22;9843;48.882;12.592;2022-09-09T02:40:14;12.80;99.90
19415;DHT22;9843;48.882;12.592;2022-09-09T02:42:42;12.80;99.90
19415;DHT22;9843;48.882;12.592;2022-09-09T02:45:11;12.70;99.90
19415;DHT22;9843;48.882;12.592;2022-09-09T02:47:42;12.70;99.90
19415;DHT22;9843;48.882;12.592;2022-09-09T02:50:16;12.70;99.90
19415;DHT22;9843;48.882;12.592;2022-09-09T02:52:56;12.70;99.90
19415;DHT22;9843;48.882;12.592;2022-09-09T02:55:32;12.60;99.90
19415;DHT22;9843;48.882;12.592;2022-09-09T02:58:02;12.60;99.90
19415;DHT22;9843;48.882;12.592;2022-09-09T03:00:31;12.60;99.90
19415;DHT22;9843;48.882;12.592;2022-09-09T03:02:59;12.60;99.90
19415;DHT22;9843;48.882;12.592;2022-09-09T03:05:27;12.50;99.90
19415;DHT22;9843;48.882;12.592;2022-09-09T03:07:53;12.50;99.90
19415;DHT22;9843;48.882;12.592;2022-09-09T03:10:20;12.50;99.90
19415;DHT22;9843;48.882;12.592;2022-09-09T03:12:47;12.50;99.90
19415;DHT22;9843;48.882;12.592;2022-09-09T03:15:14;12.50;99.90
19415;DHT22;9843;48.882;12.592;2022-09-09T03:17:41;12.50;99.90
19415;DHT22;9843;48.882;12.592;2022-09-09T03:20:09;12.50;99.90
19415;DHT22;9843;48.882;12.592;2022-09-09T03:22:37;12.50;99.90
19415;DHT22;9843;48.882;12.592;2022-09-09T03:25:05;12.50;99.90
19415;DHT22;9843;48.882;12.592;2022-09-09T03:27:32;12.50;99.90
19415;DHT22;9843;48.882;12.592;2022-09-09T03:29:58;12.50;99.90
19415;DHT22;9843;48.882;12.592;2022-09-09T03:32:29;12.50;99.90
19415;DHT22;9843;48.882;12.592;2022-09-09T03:34:56;12.50;99.90
19415;DHT22;9843;48.882;12.592;2022-09-09T03:37:23;12.50;99.90
19415;DHT22;9843;48.882;12.592;2022-09-09T03:39:51;12.50;99.90
19415;DHT22;9843;48.882;12.592;2022-09-09T03:42:20;12.50;99.90
19415;DHT22;9843;48.882;12.592;2022-09-09T03:44:47;12.50;99.90
19415;DHT22;9843;48.882;12.592;2022-09-09T03:47:16;12.50;99.90
19415;DHT22;9843;48.882;12.592;2022-09-09T03:49:43;12.50;99.90
19415;DHT22;9843;48.882;12.592;2022-09-09T03:52:10;12.50;99.90
19415;DHT22;9843;48.882;12.592;2022-09-09T03:54:36;12.50;99.90
19415;DHT22;9843;48.882;12.592;2022-09-09T03:57:05;12.50;99.90
19415;DHT22;9843;48.882;12.592;2022-09-09T03:59:31;12.50;99.90
19415;DHT22;9843;48.882;12.592;2022-09-09T04:01:58;12.50;99.90
19415;DHT22;9843;48.882;12.592;2022-09-09T04:04:25;12.50;99.90
19415;DHT22;9843;48.882;12.592;2022-09-09T04:06:52;12.50;99.90
19415;DHT22;9843;48.882;12.592;2022-09-09T04:09:19;12.40;99.90
19415;DHT22;9843;48.882;12.592;2022-09-09T04:11:46;12.40;99.90
19415;DHT22;9843;48.882;12.592;2022-09-09T04:14:14;12.40;99.90
19415;DHT22;9843;48.882;12.592;2022-09-09T04:16:40;12.40;99.90
19415;DHT22;9843;48.882;12.592;2022-09-09T04:19:10;12.40;99.90
19415;DHT22;9843;48.882;12.592;2022-09-09T04:21:38;12.40;99.90
19415;DHT22;9843;48.882;12.592;2022-09-09T04:24:06;12.40;99.90
19415;DHT22;9843;48.882;12.592;2022-09-09T04:26:33;12.40;99.90
19415;DHT22;9843;48.882;12.592;2022-09-09T04:29:02;12.40;99.90
19415;DHT22;9843;48.882;12.592;2022-09-09T04:31:30;12.40;99.90
19415;DHT22;9843;48.882;12.592;2022-09-09T04:33:57;12.40;99.90
19415;DHT22;9843;48.882;12.592;2022-09-09T04:36:23;12.40;99.90
19415;DHT22;9843;48.882;12.592;2022-09-09T04:38:50;12.30;99.90
19415;DHT22;9843;48.882;12.592;2022-09-09T04:41:17;12.30;99.90
19415;DHT22;9843;48.882;12.592;2022-09-09T04:43:43;12.30;99.90
19415;DHT22;9843;48.882;12.592;2022-09-09T04:46:10;12.30;99.90
19415;DHT22;9843;48.882;12.592;2022-09-09T04:48:38;12.30;99.90
19415;DHT22;9843;48.882;12.592;2022-09-09T04:51:08;12.30;99.90
19415;DHT22;9843;48.882;12.592;2022-09-09T04:53:36;12.20;99.90
19415;DHT22;9843;48.882;12.592;2022-09-09T04:56:05;12.30;99.90
19415;DHT22;9843;48.882;12.592;2022-09-09T04:58:33;12.30;99.90
19415;DHT22;9843;48.882;12.592;2022-09-09T05:01:04;12.30;99.90
19415;DHT22;9843;48.882;12.592;2022-09-09T05:03:31;12.20;99.90
19415;DHT22;9843;48.882;12.592;2022-09-09T05:06:04;12.30;99.90
19415;DHT22;9843;48.882;12.592;2022-09-09T05:08:31;12.30;99.90
19415;DHT22;9843;48.882;12.592;2022-09-09T05:10:58;12.30;99.90
19415;DHT22;9843;48.882;12.592;2022-09-09T05:13:25;12.30;99.90
19415;DHT22;9843;48.882;12.592;2022-09-09T05:15:53;12.30;99.90
19415;DHT22;9843;48.882;12.592;2022-09-09T05:18:20;12.30;99.90
19415;DHT22;9843;48.882;12.592;2022-09-09T05:20:47;12.30;99.90
19415;DHT22;9843;48.882;12.592;2022-09-09T05:23:15;12.30;99.90
19415;DHT22;9843;48.882;12.592;2022-09-09T05:25:42;12.30;99.90
19415;DHT22;9843;48.882;12.592;2022-09-09T05:28:09;12.30;99.90
19415;DHT22;9843;48.882;12.592;2022-09-09T05:30:37;12.40;99.90
19415;DHT22;9843;48.882;12.592;2022-09-09T05:33:03;12.40;99.90
19415;DHT22;9843;48.882;12.592;2022-09-09T05:35:31;12.40;99.90
19415;DHT22;9843;48.882;12.592;2022-09-09T05:37:59;12.50;99.90
19415;DHT22;9843;48.882;12.592;2022-09-09T05:40:28;12.50;99.90
19415;DHT22;9843;48.882;12.592;2022-09-09T05:42:55;12.50;99.90
19415;DHT22;9843;48.882;12.592;2022-09-09T05:45:25;12.50;99.90
19415;DHT22;9843;48.882;12.592;2022-09-09T05:47:52;12.50;99.90
19415;DHT22;9843;48.882;12.592;2022-09-09T05:50:20;12.50;99.90
19415;DHT22;9843;48.882;12.592;2022-09-09T05:52:47;12.50;99.90
19415;DHT22;9843;48.882;12.592;2022-09-09T05:55:15;12.60;99.90
19415;DHT22;9843;48.882;12.592;2022-09-09T05:57:48;12.60;99.90
19415;DHT22;9843;48.882;12.592;2022-09-09T06:00:15;12.60;99.90
19415;DHT22;9843;48.882;12.592;2022-09-09T06:02:42;12.80;99.90
19415;DHT22;9843;48.882;12.592;2022-09-09T06:05:09;12.80;99.90
19415;DHT22;9843;48.882;12.592;2022-09-09T06:07:36;12.90;99.90
19415;DHT22;9843;48.882;12.592;2022-09-09T06:10:03;13.00;99.90
19415;DHT22;9843;48.882;12.592;2022-09-09T06:12:30;13.20;99.90
19415;DHT22;9843;48.882;12.592;2022-09-09T06:14:59;13.20;99.90
19415;DHT22;9843;48.882;12.592;2022-09-09T06:17:26;13.30;99.90
19415;DHT22;9843;48.882;12.592;2022-09-09T06:19:53;13.30;99.90
19415;DHT22;9843;48.882;12.592;2022-09-09T06:22:20;13.40;99.90
19415;DHT22;9843;48.882;12.592;2022-09-09T06:24:47;13.60;99.90
19415;DHT22;9843;48.882;12.592;2022-09-09T06:27:13;14.00;99.90
19415;DHT22;9843;48.882;12.592;2022-09-09T06:29:40;14.40;99.90
19415;DHT22;9843;48.882;12.592;2022-09-09T06:32:08;14.70;99.90
19415;DHT22;9843;48.882;12.592;2022-09-09T06:34:35;15.10;99.90
19415;DHT22;9843;48.882;12.592;2022-09-09T06:37:02;15.40;99.90
19415;DHT22;9843;48.882;12.592;2022-09-09T06:39:28;15.80;99.90
19415;DHT22;9843;48.882;12.592;2022-09-09T06:41:55;16.30;99.90
19415;DHT22;9843;48.882;12.592;2022-09-09T06:44:24;16.50;99.90
19415;DHT22;9843;48.882;12.592;2022-09-09T06:46:52;16.70;99.90
19415;DHT22;9843;48.882;12.592;2022-09-09T06:49:20;16.50;99.90
19415;DHT22;9843;48.882;12.592;2022-09-09T06:51:47;16.10;99.90
19415;DHT22;9843;48.882;12.592;2022-09-09T06:54:14;16.00;99.90
19415;DHT22;9843;48.882;12.592;2022-09-09T06:56:42;16.00;99.90
19415;DHT22;9843;48.882;12.592;2022-09-09T06:59:11;15.50;99.90
19415;DHT22;9843;48.882;12.592;2022-09-09T07:01:39;15.40;99.90
19415;DHT22;9843;48.882;12.592;2022-09-09T07:04:07;15.40;99.90
19415;DHT22;9843;48.882;12.592;2022-09-09T07:06:38;15.60;99.90
19415;DHT22;9843;48.882;12.592;2022-09-09T07:09:07;15.70;99.90
19415;DHT22;9843;48.882;12.592;2022-09-09T07:11:37;15.90;99.90
19415;DHT22;9843;48.882;12.592;2022-09-09T07:14:04;15.90;99.90
19415;DHT22;9843;48.882;12.592;2022-09-09T07:16:31;15.80;99.90
19415;DHT22;9843;48.882;12.592;2022-09-09T07:18:59;15.80;99.90
19415;DHT22;9843;48.882;12.592;2022-09-09T07:21:27;15.60;99.90
19415;DHT22;9843;48.882;12.592;2022-09-09T07:23:55;15.40;99.90
19415;DHT22;9843;48.882;12.592;2022-09-09T07:26:24;15.30;99.90
19415;DHT22;9843;48.882;12.592;2022-09-09T07:28:52;15.10;99.90
19415;DHT22;9843;48.882;12.592;2022-09-09T07:31:20;15.00;99.90
19415;DHT22;9843;48.882;12.592;2022-09-09T07:33:48;14.90;99.90
19415;DHT22;9843;48.882;12.592;2022-09-09T07:36:16;14.80;99.90
19415;DHT22;9843;48.882;12.592;2022-09-09T07:38:44;14.80;99.90
19415;DHT22;9843;48.882;12.592;2022-09-09T07:41:16;14.90;99.90
19415;DHT22;9843;48.882;12.592;2022-09-09T07:43:44;15.30;99.90
19415;DHT22;9843;48.882;12.592;2022-09-09T07:46:13;16.00;99.90
19415;DHT22;9843;48.882;12.592;2022-09-09T07:48:43;16.80;99.90
19415;DHT22;9843;48.882;12.592;2022-09-09T07:51:12;17.40;99.90
19415;DHT22;9843;48.882;12.592;2022-09-09T07:53:40;17.80;99.90
19415;DHT22;9843;48.882;12.592;2022-09-09T07:56:09;18.20;99.90
19415;DHT22;9843;48.882;12.592;2022-09-09T07:58:38;18.30;99.90
19415;DHT22;9843;48.882;12.592;2022-09-09T08:01:09;18.10;99.90
19415;DHT22;9843;48.882;12.592;2022-09-09T08:03:37;17.50;99.90
19415;DHT22;9843;48.882;12.592;2022-09-09T08:06:06;17.30;99.90
19415;DHT22;9843;48.882;12.592;2022-09-09T08:08:34;17.30;99.90
19415;DHT22;9843;48.882;12.592;2022-09-09T08:11:03;17.60;99.90
19415;DHT22;9843;48.882;12.592;2022-09-09T08:13:30;18.10;99.90
19415;DHT22;9843;48.882;12.592;2022-09-09T08:16:06;18.30;99.90
19415;DHT22;9843;48.882;12.592;2022-09-09T08:18:33;18.30;99.90
19415;DHT22;9843;48.882;12.592;2022-09-09T08:21:05;17.80;99.90
19415;DHT22;9843;48.882;12.592;2022-09-09T08:23:34;17.50;99.90
19415;DHT22;9843;48.882;12.592;2022-09-09T08:26:05;17.30;99.90
19415;DHT22;9843;48.882;12.592;2022-09-09T08:28:34;17.30;99.90
19415;DHT22;9843;48.882;12.592;2022-09-09T08:31:10;17.20;99.90
19415;DHT22;9843;48.882;12.592;2022-09-09T08:33:38;17.10;99.90
19415;DHT22;9843;48.882;12.592;2022-09-09T08:36:06;17.10;99.90
19415;DHT22;9843;48.882;12.592;2022-09-09T08:38:34;17.00;99.90
19415;DHT22;9843;48.882;12.592;2022-09-09T08:41:11;17.10;99.90
19415;DHT22;9843;48.882;12.592;2022-09-09T08:43:43;17.20;99.90
19415;DHT22;9843;48.882;12.592;2022-09-09T08:46:19;17.20;99.90
19415;DHT22;9843;48.882;12.592;2022-09-09T08:48:53;17.20;99.90
19415;DHT22;9843;48.882;12.592;2022-09-09T08:51:25;17.10;99.90
19415;DHT22;9843;48.882;12.592;2022-09-09T08:53:53;17.00;99.90
19415;DHT22;9843;48.882;12.592;2022-09-09T08:56:22;16.80;99.90
19415;DHT22;9843;48.882;12.592;2022-09-09T08:58:51;16.80;99.90
19415;DHT22;9843;48.882;12.592;2022-09-09T09:04:41;16.80;99.90
19415;DHT22;9843;48.882;12.592;2022-09-09T09:07:19;16.70;99.90
19415;DHT22;9843;48.882;12.592;2022-09-09T09:09:56;16.70;99.90
19415;DHT22;9843;48.882;12.592;2022-09-09T09:12:27;16.60;99.90
19415;DHT22;9843;48.882;12.592;2022-09-09T09:14:55;16.50;99.90
19415;DHT22;9843;48.882;12.592;2022-09-09T09:17:26;16.40;99.90
19415;DHT22;9843;48.882;12.592;2022-09-09T09:19:55;16.40;99.90
19415;DHT22;9843;48.882;12.592;2022-09-09T09:22:28;16.50;99.90
19415;DHT22;9843;48.882;12.592;2022-09-09T09:25:02;16.40;99.90
19415;DHT22;9843;48.882;12.592;2022-09-09T09:27:39;16.40;99.90
19415;DHT22;9843;48.882;12.592;2022-09-09T09:30:15;16.50;99.90
19415;DHT22;9843;48.882;12.592;2022-09-09T09:32:55;16.40;99.90
19415;DHT22;9843;48.882;12.592;2022-09-09T09:35:22;16.40;99.90
19415;DHT22;9843;48.882;12.592;2022-09-09T09:37:49;16.20;99.90
19415;DHT22;9843;48.882;12.592;2022-09-09T09:40:18;16.10;99.90
19415;DHT22;9843;48.882;12.592;2022-09-09T09:42:52;16.20;99.90
19415;DHT22;9843;48.882;12.592;2022-09-09T09:45:29;16.10;99.90
19415;DHT22;9843;48.882;12.592;2022-09-09T09:48:01;16.10;99.90
19415;DHT22;9843;48.882;12.592;2022-09-09T09:50:29;16.00;99.90
19415;DHT22;9843;48.882;12.592;2022-09-09T09:52:58;16.00;99.90
19415;DHT22;9843;48.882;12.592;2022-09-09T09:55:26;16.00;99.90
19415;DHT22;9843;48.882;12.592;2022-09-09T09:57:53;16.10;99.90
19415;DHT22;9843;48.882;12.592;2022-09-09T10:00:22;16.00;99.90
19415;DHT22;9843;48.882;12.592;2022-09-09T10:02:50;15.90;99.90
19415;DHT22;9843;48.882;12.592;2022-09-09T10:05:23;15.90;99.90
19415;DHT22;9843;48.882;12.592;2022-09-09T10:08:04;15.90;99.90
19415;DHT22;9843;48.882;12.592;2022-09-09T10:10:42;15.90;99.90
19415;DHT22;9843;48.882;12.592;2022-09-09T10:13:19;15.80;99.90
19415;DHT22;9843;48.882;12.592;2022-09-09T10:15:58;15.80;99.90
19415;DHT22;9843;48.882;12.592;2022-09-09T10:18:39;15.70;99.90
19415;DHT22;9843;48.882;12.592;2022-09-09T10:21:20;15.70;99.90
19415;DHT22;9843;48.882;12.592;2022-09-09T10:24:04;15.60;99.90
19415;DHT22;9843;48.882;12.592;2022-09-09T10:26:40;15.50;99.90
19415;DHT22;9843;48.882;12.592;2022-09-09T10:29:22;15.50;99.90
19415;DHT22;9843;48.882;12.592;2022-09-09T10:31:59;15.50;99.90
19415;DHT22;9843;48.882;12.592;2022-09-09T10:34:49;15.50;99.90
19415;DHT22;9843;48.882;12.592;2022-09-09T10:37:28;15.50;99.90
19415;DHT22;9843;48.882;12.592;2022-09-09T10:40:05;15.50;99.90
19415;DHT22;9843;48.882;12.592;2022-09-09T10:42:39;15.60;99.90
19415;DHT22;9843;48.882;12.592;2022-09-09T10:45:17;15.60;99.90
19415;DHT22;9843;48.882;12.592;2022-09-09T10:47:57;15.60;99.90
19415;DHT22;9843;48.882;12.592;2022-09-09T10:50:38;15.50;99.90
19415;DHT22;9843;48.882;12.592;2022-09-09T10:53:14;15.40;99.90
19415;DHT22;9843;48.882;12.592;2022-09-09T10:55:48;15.40;99.90
19415;DHT22;9843;48.882;12.592;2022-09-09T10:58:23;15.50;99.90
19415;DHT22;9843;48.882;12.592;2022-09-09T11:00:55;15.50;99.90
19415;DHT22;9843;48.882;12.592;2022-09-09T11:03:25;15.60;99.90
19415;DHT22;9843;48.882;12.592;2022-09-09T11:05:56;15.60;99.90
19415;DHT22;9843;48.882;12.592;2022-09-09T11:08:26;15.70;99.90
19415;DHT22;9843;48.882;12.592;2022-09-09T11:10:58;15.80;99.90
19415;DHT22;9843;48.882;12.592;2022-09-09T11:13:30;15.80;99.90
19415;DHT22;9843;48.882;12.592;2022-09-09T11:16:04;15.90;99.90
19415;DHT22;9843;48.882;12.592;2022-09-09T11:18:37;15.90;99.90
19415;DHT22;9843;48.882;12.592;2022-09-09T11:21:13;16.00;99.90
19415;DHT22;9843;48.882;12.592;2022-09-09T11:23:49;16.20;99.90
19415;DHT22;9843;48.882;12.592;2022-09-09T11:26:24;16.40;99.90
19415;DHT22;9843;48.882;12.592;2022-09-09T11:29:09;16.50;99.90
19415;DHT22;9843;48.882;12.592;2022-09-09T11:31:44;16.50;99.90
19415;DHT22;9843;48.882;12.592;2022-09-09T11:34:35;16.50;99.90
19415;DHT22;9843;48.882;12.592;2022-09-09T11:40:09;16.40;99.90
19415;DHT22;9843;48.882;12.592;2022-09-09T11:42:41;16.50;99.90
19415;DHT22;9843;48.882;12.592;2022-09-09T11:45:21;16.60;99.90
19415;DHT22;9843;48.882;12.592;2022-09-09T11:47:53;16.70;99.90
19415;DHT22;9843;48.882;12.592;2022-09-09T11:50:36;16.80;99.90
19415;DHT22;9843;48.882;12.592;2022-09-09T11:53:14;17.10;99.90
19415;DHT22;9843;48.882;12.592;2022-09-09T11:55:44;17.30;99.90
19415;DHT22;9843;48.882;12.592;2022-09-09T11:58:17;17.60;99.90
19415;DHT22;9843;48.882;12.592;2022-09-09T12:00:46;17.90;99.90
19415;DHT22;9843;48.882;12.592;2022-09-09T12:03:39;18.00;99.90
19415;DHT22;9843;48.882;12.592;2022-09-09T12:06:15;18.50;99.90
19415;DHT22;9843;48.882;12.592;2022-09-09T12:08:45;18.90;99.90
19415;DHT22;9843;48.882;12.592;2022-09-09T12:11:24;18.90;99.90
19415;DHT22;9843;48.882;12.592;2022-09-09T12:13:54;19.00;99.90
19415;DHT22;9843;48.882;12.592;2022-09-09T12:16:32;19.20;99.90
19415;DHT22;9843;48.882;12.592;2022-09-09T12:19:04;19.60;99.90
19415;DHT22;9843;48.882;12.592;2022-09-09T12:21:36;19.80;99.90
19415;DHT22;9843;48.882;12.592;2022-09-09T12:24:09;20.00;99.90
19415;DHT22;9843;48.882;12.592;2022-09-09T12:26:41;20.00;99.90
19415;DHT22;9843;48.882;12.592;2022-09-09T12:29:16;20.10;99.90
19415;DHT22;9843;48.882;12.592;2022-09-09T12:31:54;20.10;99.90
19415;DHT22;9843;48.882;12.592;2022-09-09T12:34:33;19.90;99.90
19415;DHT22;9843;48.882;12.592;2022-09-09T12:37:05;19.90;99.90
19415;DHT22;9843;48.882;12.592;2022-09-09T12:39:35;19.80;99.90
19415;DHT22;9843;48.882;12.592;2022-09-09T12:42:16;20.10;99.90
19415;DHT22;9843;48.882;12.592;2022-09-09T12:44:54;20.30;99.90
19415;DHT22;9843;48.882;12.592;2022-09-09T12:47:23;21.20;99.90
19415;DHT22;9843;48.882;12.592;2022-09-09T12:49:51;22.10;99.90
19415;DHT22;9843;48.882;12.592;2022-09-09T12:52:24;22.10;99.90
19415;DHT22;9843;48.882;12.592;2022-09-09T12:54:55;22.40;99.90
19415;DHT22;9843;48.882;12.592;2022-09-09T12:57:25;22.30;99.90
19415;DHT22;9843;48.882;12.592;2022-09-09T13:00:06;22.20;99.90
19415;DHT22;9843;48.882;12.592;2022-09-09T13:02:33;22.20;99.90
19415;DHT22;9843;48.882;12.592;2022-09-09T13:05:08;22.80;99.90
19415;DHT22;9843;48.882;12.592;2022-09-09T13:07:40;22.40;99.90
19415;DHT22;9843;48.882;12.592;2022-09-09T13:10:10;22.70;99.90
19415;DHT22;9843;48.882;12.592;2022-09-09T13:12:39;22.80;99.90
19415;DHT22;9843;48.882;12.592;2022-09-09T13:15:14;22.50;99.90
19415;DHT22;9843;48.882;12.592;2022-09-09T13:17:50;23.10;99.90
19415;DHT22;9843;48.882;12.592;2022-09-09T13:20:19;23.00;99.90
19415;DHT22;9843;48.882;12.592;2022-09-09T13:22:48;22.90;99.90
19415;DHT22;9843;48.882;12.592;2022-09-09T13:25:19;23.20;99.90
19415;DHT22;9843;48.882;12.592;2022-09-09T13:27:57;22.50;99.90
19415;DHT22;9843;48.882;12.592;2022-09-09T13:30:27;22.60;99.90
19415;DHT22;9843;48.882;12.592;2022-09-09T13:33:21;22.10;99.90
19415;DHT22;9843;48.882;12.592;2022-09-09T13:35:51;21.40;99.90
19415;DHT22;9843;48.882;12.592;2022-09-09T13:38:20;21.20;99.90
19415;DHT22;9843;48.882;12.592;2022-09-09T13:40:58;21.30;99.90
19415;DHT22;9843;48.882;12.592;2022-09-09T13:43:30;21.50;99.90
19415;DHT22;9843;48.882;12.592;2022-09-09T13:45:59;22.10;99.90
19415;DHT22;9843;48.882;12.592;2022-09-09T13:48:27;22.80;99.90
19415;DHT22;9843;48.882;12.592;2022-09-09T13:51:00;23.10;99.90
19415;DHT22;9843;48.882;12.592;2022-09-09T13:53:28;22.90;99.90
19415;DHT22;9843;48.882;12.592;2022-09-09T13:55:56;22.70;99.90
19415;DHT22;9843;48.882;12.592;2022-09-09T13:58:23;23.10;99.90
19415;DHT22;9843;48.882;12.592;2022-09-09T14:00:52;22.90;99.90
19415;DHT22;9843;48.882;12.592;2022-09-09T14:03:19;22.90;99.90
19415;DHT22;9843;48.882;12.592;2022-09-09T14:05:47;23.00;99.90
19415;DHT22;9843;48.882;12.592;2022-09-09T14:08:26;23.00;99.90
19415;DHT22;9843;48.882;12.592;2022-09-09T14:10:53;23.10;99.90
19415;DHT22;9843;48.882;12.592;2022-09-09T14:13:21;23.30;99.90
19415;DHT22;9843;48.882;12.592;2022-09-09T14:15:48;23.20;99.90
19415;DHT22;9843;48.882;12.592;2022-09-09T14:18:17;23.10;99.90
19415;DHT22;9843;48.882;12.592;2022-09-09T14:20:44;22.30;99.90
19415;DHT22;9843;48.882;12.592;2022-09-09T14:23:12;22.10;99.90
19415;DHT22;9843;48.882;12.592;2022-09-09T14:25:42;22.00;99.90
19415;DHT22;9843;48.882;12.592;2022-09-09T14:28:10;21.70;99.90
19415;DHT22;9843;48.882;12.592;2022-09-09T14:30:39;21.50;99.90
19415;DHT22;9843;48.882;12.592;2022-09-09T14:33:06;21.20;99.90
19415;DHT22;9843;48.882;12.592;2022-09-09T14:35:35;21.30;99.90
19415;DHT22;9843;48.882;12.592;2022-09-09T14:38:02;21.20;99.90
19415;DHT22;9843;48.882;12.592;2022-09-09T14:40:30;21.20;99.90
19415;DHT22;9843;48.882;12.592;2022-09-09T14:42:57;21.20;99.90
19415;DHT22;9843;48.882;12.592;2022-09-09T14:45:24;21.10;99.90
19415;DHT22;9843;48.882;12.592;2022-09-09T14:47:51;21.10;99.90
19415;DHT22;9843;48.882;12.592;2022-09-09T14:50:19;21.10;99.90
19415;DHT22;9843;48.882;12.592;2022-09-09T14:52:48;21.20;99.90
19415;DHT22;9843;48.882;12.592;2022-09-09T14:55:16;21.00;99.90
19415;DHT22;9843;48.882;12.592;2022-09-09T14:57:43;20.80;99.90
19415;DHT22;9843;48.882;12.592;2022-09-09T15:00:11;21.00;99.90
19415;DHT22;9843;48.882;12.592;2022-09-09T15:02:39;21.10;99.90
19415;DHT22;9843;48.882;12.592;2022-09-09T15:05:06;21.10;99.90
19415;DHT22;9843;48.882;12.592;2022-09-09T15:07:34;20.90;99.90
19415;DHT22;9843;48.882;12.592;2022-09-09T15:10:03;20.90;99.90
19415;DHT22;9843;48.882;12.592;2022-09-09T15:12:30;20.70;99.90
19415;DHT22;9843;48.882;12.592;2022-09-09T15:14:57;20.70;99.90
19415;DHT22;9843;48.882;12.592;2022-09-09T15:17:24;20.60;99.90
19415;DHT22;9843;48.882;12.592;2022-09-09T15:19:53;20.60;99.90
19415;DHT22;9843;48.882;12.592;2022-09-09T15:22:20;20.70;99.90
19415;DHT22;9843;48.882;12.592;2022-09-09T15:24:47;20.60;99.90
19415;DHT22;9843;48.882;12.592;2022-09-09T15:27:15;20.40;99.90
19415;DHT22;9843;48.882;12.592;2022-09-09T15:29:42;20.40;99.90
19415;DHT22;9843;48.882;12.592;2022-09-09T15:32:10;20.40;99.90
19415;DHT22;9843;48.882;12.592;2022-09-09T15:34:36;20.40;99.90
19415;DHT22;9843;48.882;12.592;2022-09-09T15:37:03;20.40;99.90
19415;DHT22;9843;48.882;12.592;2022-09-09T15:39:30;20.20;99.90
19415;DHT22;9843;48.882;12.592;2022-09-09T15:41:57;20.30;99.90
19415;DHT22;9843;48.882;12.592;2022-09-09T15:44:26;20.30;99.90
19415;DHT22;9843;48.882;12.592;2022-09-09T15:46:53;20.20;99.90
19415;DHT22;9843;48.882;12.592;2022-09-09T15:49:21;20.20;99.90
19415;DHT22;9843;48.882;12.592;2022-09-09T15:51:51;20.10;99.90
19415;DHT22;9843;48.882;12.592;2022-09-09T15:54:19;19.90;99.90
19415;DHT22;9843;48.882;12.592;2022-09-09T15:56:51;19.80;99.90
19415;DHT22;9843;48.882;12.592;2022-09-09T15:59:20;19.80;99.90
19415;DHT22;9843;48.882;12.592;2022-09-09T16:01:48;19.70;99.90